Time;durP1;ratioP1;P1;durP2;ratioP2;P2;SDS_P1;SDS_P2;PMS_P1;PMS_P2;Temp;Humidity;BMP_temperature;BMP_pressure;BME280_temperature;BME280_humidity;BME280_pressure;Samples;Min_cycle;Max_cycle;Signal;HPM_P1;HPM_P2
2023/07/07 00:01:17;;;;;;;17.30;5.20;;;;;;;14.90;93.57;99304.95;135189;1281;22577;-77
2023/07/07 00:04:23;;;;;;;21.00;5.90;;;;;;;14.79;93.48;99311.54;135234;1281;22526;-75
2023/07/07 00:07:28;;;;;;;19.20;5.90;;;;;;;14.77;93.71;99313.75;135189;1282;22526;-78
2023/07/07 00:10:32;;;;;;;21.20;5.80;;;;;;;14.80;93.52;99309.19;135158;1281;24592;-79
2023/07/07 00:13:35;;;;;;;20.60;5.90;;;;;;;14.76;94.36;99315.11;135176;1281;22573;-79
2023/07/07 00:16:39;;;;;;;18.50;5.00;;;;;;;14.76;95.37;99313.67;135170;1281;24201;-79
2023/07/07 00:19:42;;;;;;;9.40;3.10;;;;;;;14.80;95.92;99310.56;135213;1281;22528;-78
2023/07/07 00:22:45;;;;;;;;;;;;;;;14.76;94.97;99312.63;135253;1281;25266;-71
2023/07/07 00:25:47;;;;;;;10.80;3.20;;;;;;;14.69;96.09;99310.10;135224;1281;22534;-80
2023/07/07 00:28:54;;;;;;;21.30;3.50;;;;;;;14.56;95.10;99313.98;135235;1281;22529;-72
2023/07/07 00:31:57;;;;;;;14.40;4.30;;;;;;;14.41;96.87;99316.60;135238;1281;22533;-74
2023/07/07 00:35:00;;;;;;;12.70;3.90;;;;;;;14.50;95.46;99317.59;135197;1276;22536;-77
2023/07/07 00:38:03;;;;;;;;;;;;;;;14.43;96.34;99321.93;135239;1262;22549;-76
2023/07/07 00:41:10;;;;;;;16.10;4.50;;;;;;;14.44;96.39;99323.95;135236;1281;22530;-74
2023/07/07 00:44:13;;;;;;;19.40;4.30;;;;;;;14.47;97.55;99323.73;135233;1281;25278;-71
2023/07/07 00:47:16;;;;;;;;;;;;;;;14.45;99.06;99325.47;135237;1261;22770;-76
2023/07/07 00:50:19;;;;;;;16.90;5.50;;;;;;;14.29;100.00;99326.57;135208;1281;22625;-66
2023/07/07 00:53:22;;;;;;;14.50;4.60;;;;;;;14.41;99.78;99326.98;135237;1281;23001;-65
2023/07/07 00:56:25;;;;;;;17.10;4.90;;;;;;;14.21;100.00;99328.86;135255;1281;24673;-77
2023/07/07 00:59:28;;;;;;;17.80;5.00;;;;;;;15.51;84.84;99327.89;135238;1281;22536;-68
2023/07/07 01:02:31;;;;;;;16.00;4.80;;;;;;;14.80;90.11;99327.57;135312;1281;24277;-80
2023/07/07 01:05:38;;;;;;;22.90;6.30;;;;;;;14.42;95.31;99326.59;135249;1281;22538;-68
2023/07/07 01:08:41;;;;;;;21.20;6.70;;;;;;;14.22;97.23;99327.60;135209;1281;22561;-75
2023/07/07 01:11:45;;;;;;;23.40;6.80;;;;;;;14.24;96.57;99331.27;135232;1281;22536;-65
2023/07/07 01:14:49;;;;;;;19.30;6.30;;;;;;;15.21;85.48;99325.89;135235;1281;22572;-71
2023/07/07 01:17:53;;;;;;;20.70;6.70;;;;;;;15.57;81.12;99327.06;135234;1281;22556;-74
2023/07/07 01:21:01;;;;;;;;;;;;;;;16.18;74.84;99326.05;135252;1281;22629;-68
2023/07/07 01:24:05;;;;;;;19.90;5.40;;;;;;;16.34;71.95;99321.73;135286;1281;22580;-64
2023/07/07 01:27:10;;;;;;;19.10;5.20;;;;;;;16.14;72.65;99324.27;135282;1281;22653;-65
2023/07/07 01:30:12;;;;;;;18.80;4.90;;;;;;;16.09;72.24;99326.41;135254;1281;22604;-74
2023/07/07 01:33:16;;;;;;;19.80;5.40;;;;;;;15.93;72.00;99329.59;135255;1281;22527;-74
2023/07/07 01:36:19;;;;;;;21.40;6.40;;;;;;;15.54;74.91;99329.08;135230;1281;22548;-75
2023/07/07 01:39:23;;;;;;;22.60;6.40;;;;;;;14.79;82.27;99333.10;135233;1281;22553;-74
2023/07/07 01:42:26;;;;;;;18.10;5.40;;;;;;;14.01;90.99;99338.16;135200;1281;22561;-76
2023/07/07 01:45:29;;;;;;;17.90;5.80;;;;;;;13.89;92.14;99342.62;135213;1281;22572;-64
2023/07/07 01:48:36;;;;;;;17.00;5.40;;;;;;;13.84;92.38;99338.22;135162;1281;25119;-66
2023/07/07 01:51:40;;;;;;;21.60;5.90;;;;;;;13.97;91.79;99341.91;135264;1281;22525;-80
2023/07/07 01:54:45;;;;;;;19.60;5.60;;;;;;;13.95;92.98;99345.02;135163;1281;25270;-78
2023/07/07 01:57:52;;;;;;;18.40;5.90;;;;;;;13.82;94.14;99342.91;135150;1281;22550;-78
2023/07/07 02:00:56;;;;;;;20.00;6.20;;;;;;;13.72;94.56;99341.98;135177;1281;22568;-75
2023/07/07 02:04:00;;;;;;;21.70;6.80;;;;;;;13.68;94.85;99339.25;135249;1281;22556;-77
2023/07/07 02:07:03;;;;;;;18.30;5.70;;;;;;;13.63;95.81;99341.34;135188;1281;22545;-72
2023/07/07 02:10:06;;;;;;;18.00;5.50;;;;;;;13.64;95.81;99339.64;135275;1281;22536;-75
2023/07/07 02:13:10;;;;;;;17.90;5.90;;;;;;;13.71;94.62;99341.19;135243;1281;22551;-76
2023/07/07 02:16:12;;;;;;;;;;;;;;;13.66;95.12;99343.59;135291;1281;22519;-73
2023/07/07 02:19:16;;;;;;;20.20;5.70;;;;;;;13.64;95.70;99344.96;135294;1281;22543;-78
2023/07/07 02:22:23;;;;;;;19.90;6.00;;;;;;;13.68;95.40;99349.27;135227;1281;22537;-72
2023/07/07 02:25:26;;;;;;;19.80;5.90;;;;;;;13.66;95.73;99347.43;135218;1281;22516;-75
2023/07/07 02:28:29;;;;;;;21.50;5.70;;;;;;;13.58;96.70;99348.70;135280;1281;25371;-77
2023/07/07 02:31:31;;;;;;;;;;;;;;;13.64;95.79;99352.00;135302;1277;22506;-77
2023/07/07 02:34:36;;;;;;;16.40;5.30;;;;;;;13.71;93.80;99358.88;135244;1281;24375;-78
2023/07/07 02:37:40;;;;;;;20.60;4.80;;;;;;;13.74;92.57;99357.80;135230;1261;22577;-76
2023/07/07 02:40:44;;;;;;;18.40;5.60;;;;;;;13.67;94.45;99361.84;135220;1281;22613;-75
2023/07/07 02:43:47;;;;;;;16.70;4.50;;;;;;;13.57;93.68;99366.11;135243;1262;22540;-78
2023/07/07 02:46:50;;;;;;;16.70;4.80;;;;;;;13.68;91.24;99367.90;135251;1280;25257;-76
2023/07/07 02:49:56;;;;;;;17.20;5.00;;;;;;;13.71;90.25;99374.02;135257;1281;22659;-74
2023/07/07 02:53:03;;;;;;;16.60;5.00;;;;;;;13.62;92.45;99375.48;135233;1281;22545;-71
2023/07/07 02:56:07;;;;;;;14.90;4.70;;;;;;;13.51;93.85;99378.66;135285;1281;25254;-76
2023/07/07 02:59:13;;;;;;;16.60;4.20;;;;;;;13.44;94.31;99378.77;135229;1277;22552;-74
2023/07/07 03:02:16;;;;;;;10.70;2.80;;;;;;;13.41;94.22;99377.85;135231;1281;25576;-76
2023/07/07 03:05:20;;;;;;;21.60;5.30;;;;;;;13.46;94.23;99379.84;135269;1281;22558;-79
2023/07/07 03:08:23;;;;;;;18.30;5.10;;;;;;;14.73;83.58;99377.16;135235;1281;22541;-75
2023/07/07 03:11:27;;;;;;;8.30;2.70;;;;;;;16.32;69.03;99378.84;135225;1281;22538;-79
2023/07/07 03:14:38;;;;;;;9.10;3.60;;;;;;;16.71;66.02;99381.51;135186;1281;22517;-79
2023/07/07 03:17:45;;;;;;;11.60;3.30;;;;;;;16.39;67.56;99389.05;135267;1281;24224;-79
2023/07/07 03:20:49;;;;;;;13.10;3.90;;;;;;;16.57;67.20;99389.09;135224;1281;22551;-73
2023/07/07 03:23:52;;;;;;;17.60;4.60;;;;;;;16.66;67.14;99387.17;135228;1281;22645;-77
2023/07/07 03:26:57;;;;;;;17.00;4.80;;;;;;;17.00;66.40;99392.88;135206;1281;22545;-72
2023/07/07 03:30:00;;;;;;;13.00;4.20;;;;;;;17.45;64.93;99394.30;135330;1277;22635;-78
2023/07/07 03:33:03;;;;;;;19.30;5.60;;;;;;;17.64;64.80;99389.96;135368;1281;22521;-74
2023/07/07 03:36:10;;;;;;;20.10;5.30;;;;;;;17.60;65.33;99393.41;135286;1281;22523;-82
2023/07/07 03:39:12;;;;;;;20.30;5.60;;;;;;;17.99;63.97;99393.96;135337;1281;22534;-83
2023/07/07 03:42:19;;;;;;;19.60;5.80;;;;;;;18.01;64.86;99392.27;135319;1281;22549;-75
2023/07/07 03:45:24;;;;;;;18.60;5.20;;;;;;;18.29;64.20;99396.79;135352;1281;22527;-78
2023/07/07 03:48:28;;;;;;;21.20;5.70;;;;;;;18.58;63.51;99397.20;135342;1281;22529;-73
2023/07/07 03:51:35;;;;;;;21.70;6.00;;;;;;;19.00;62.50;99395.02;135333;1281;25713;-76
2023/07/07 03:54:39;;;;;;;22.70;7.40;;;;;;;18.58;65.35;99398.73;135291;1281;22540;-72
2023/07/07 03:57:44;;;;;;;20.90;6.10;;;;;;;16.53;81.82;99404.25;135292;1281;22536;-82
2023/07/07 04:00:48;;;;;;;18.50;6.00;;;;;;;16.46;84.77;99403.39;135418;1281;24090;-79
2023/07/07 04:03:51;;;;;;;19.70;6.20;;;;;;;16.62;83.82;99406.39;135350;1281;25447;-74
2023/07/07 04:06:54;;;;;;;20.00;6.10;;;;;;;16.66;85.30;99405.00;135306;1277;22547;-82
2023/07/07 04:09:59;;;;;;;22.60;6.00;;;;;;;16.76;87.19;99406.20;135367;1281;22568;-77
2023/07/07 04:13:03;;;;;;;20.90;6.10;;;;;;;16.99;86.38;99406.79;135341;1281;22985;-77
2023/07/07 04:16:14;;;;;;;21.30;6.00;;;;;;;17.14;86.96;99408.39;131223;1281;5374115;-78
2023/07/07 04:19:17;;;;;;;;;;;;;;;17.39;87.22;99398.44;135250;1281;22511;-78
2023/07/07 04:22:21;;;;;;;22.00;6.60;;;;;;;17.59;89.13;99403.92;135252;1281;22557;-82
2023/07/07 04:25:24;;;;;;;23.00;7.10;;;;;;;17.89;87.05;99408.97;135306;1262;22549;-84
2023/07/07 04:28:28;;;;;;;20.70;6.30;;;;;;;18.14;86.57;99407.25;135349;1281;25948;-83
2023/07/07 04:31:33;;;;;;;23.00;6.50;;;;;;;18.37;87.31;99406.27;135350;1277;22530;-81
2023/07/07 04:34:38;;;;;;;21.80;6.50;;;;;;;18.79;83.25;99413.09;135429;1281;23183;-77
2023/07/07 04:37:41;;;;;;;22.30;7.50;;;;;;;18.61;86.56;99425.80;135495;1273;23881;-71
2023/07/07 04:40:46;;;;;;;21.30;6.70;;;;;;;18.44;86.53;99418.61;135535;1281;22828;-81
2023/07/07 04:43:49;;;;;;;24.30;7.10;;;;;;;18.59;87.40;99416.22;135373;1281;22494;-75
2023/07/07 04:46:54;;;;;;;22.50;7.40;;;;;;;19.23;86.40;99419.45;135362;1277;22541;-73
2023/07/07 04:49:57;;;;;;;24.40;8.30;;;;;;;19.54;83.64;99423.85;135307;1281;26974;-79
2023/07/07 04:53:02;;;;;;;20.80;7.30;;;;;;;19.75;82.98;99414.86;135308;1277;22536;-82
2023/07/07 04:56:06;;;;;;;29.40;8.50;;;;;;;19.86;84.55;99425.23;135309;1275;22523;-78
2023/07/07 04:59:09;;;;;;;28.10;8.70;;;;;;;20.03;85.18;99423.92;135164;1262;24220;-82
2023/07/07 05:02:12;;;;;;;24.60;9.00;;;;;;;20.35;84.59;99426.53;135286;1281;22530;-84
2023/07/07 05:05:16;;;;;;;26.90;9.10;;;;;;;20.62;82.50;99427.05;135159;1281;22525;-76
2023/07/07 05:08:18;;;;;;;24.00;9.60;;;;;;;22.35;72.21;99427.55;135142;1258;22567;-81
2023/07/07 05:11:22;;;;;;;25.50;8.70;;;;;;;23.19;66.20;99427.60;135320;1281;22593;-81
2023/07/07 05:14:25;;;;;;;25.50;9.40;;;;;;;23.51;64.39;99431.70;135302;1281;22661;-82
2023/07/07 05:17:32;;;;;;;26.40;9.70;;;;;;;23.89;63.28;99426.13;135317;1281;22547;-78
2023/07/07 05:20:36;;;;;;;23.40;8.40;;;;;;;23.92;63.08;99427.67;135349;1281;22791;-74
2023/07/07 05:23:39;;;;;;;23.10;9.00;;;;;;;24.51;59.15;99427.74;135272;1281;22513;-79
2023/07/07 05:26:42;;;;;;;25.40;8.80;;;;;;;24.52;58.69;99430.29;135318;1281;26460;-76
2023/07/07 05:29:48;;;;;;;24.40;8.40;;;;;;;24.62;58.76;99430.16;135346;1281;22533;-80
2023/07/07 05:32:52;;;;;;;25.80;8.80;;;;;;;24.73;58.59;99433.64;135330;1281;22654;-79
2023/07/07 05:35:56;;;;;;;24.30;8.60;;;;;;;25.27;56.75;99428.66;135299;1281;25489;-81
2023/07/07 05:39:00;;;;;;;23.50;8.00;;;;;;;25.53;55.35;99426.15;135322;1281;22546;-81
2023/07/07 05:42:04;;;;;;;24.20;8.50;;;;;;;25.64;54.35;99428.40;135358;1281;22522;-81
2023/07/07 05:45:07;;;;;;;24.40;8.40;;;;;;;25.66;54.23;99428.09;135319;1281;22544;-80
2023/07/07 05:48:10;;;;;;;22.20;8.10;;;;;;;25.75;54.82;99429.17;135336;1281;22536;-72
2023/07/07 05:51:15;;;;;;;21.60;7.80;;;;;;;26.07;53.24;99426.56;135293;1281;22520;-77
2023/07/07 05:54:21;;;;;;;23.80;7.50;;;;;;;26.44;52.15;99431.05;135318;1281;22523;-80
2023/07/07 05:57:25;;;;;;;22.30;7.80;;;;;;;26.09;53.96;99431.90;135332;1281;22550;-79
2023/07/07 06:00:28;;;;;;;21.00;7.70;;;;;;;26.54;52.34;99434.73;135317;1281;22562;-79
2023/07/07 06:03:32;;;;;;;22.30;7.40;;;;;;;26.68;52.67;99435.02;135337;1281;22533;-79
2023/07/07 06:06:35;;;;;;;22.20;7.50;;;;;;;27.32;51.10;99435.77;135320;1281;24388;-78
2023/07/07 06:09:38;;;;;;;21.90;7.80;;;;;;;27.35;50.67;99438.64;135351;1281;22530;-78
2023/07/07 06:12:42;;;;;;;25.20;7.60;;;;;;;26.62;52.13;99443.42;135334;1281;26605;-75
2023/07/07 06:15:45;;;;;;;23.30;7.10;;;;;;;27.25;50.85;99451.19;135328;1281;22541;-76
2023/07/07 06:18:48;;;;;;;21.30;7.00;;;;;;;27.66;48.92;99453.94;135290;1281;22585;-78
2023/07/07 06:21:52;;;;;;;20.80;6.30;;;;;;;27.73;49.10;99454.13;135333;1281;22523;-78
2023/07/07 06:24:56;;;;;;;17.90;6.50;;;;;;;27.71;47.96;99454.27;135328;1281;22580;-73
2023/07/07 06:27:59;;;;;;;22.50;6.20;;;;;;;27.03;49.63;99457.05;135309;1281;22544;-80
2023/07/07 06:31:02;;;;;;;22.50;7.30;;;;;;;27.49;49.98;99457.91;135287;1281;22667;-79
2023/07/07 06:34:06;;;;;;;21.00;6.40;;;;;;;26.52;52.18;99464.34;135317;1281;22552;-78
2023/07/07 06:37:09;;;;;;;20.30;6.30;;;;;;;26.21;53.32;99461.36;135379;1281;22522;-78
2023/07/07 06:40:13;;;;;;;21.80;6.00;;;;;;;26.28;55.08;99460.63;135297;1281;22527;-79
2023/07/07 06:43:18;;;;;;;19.90;6.00;;;;;;;26.45;52.61;99466.24;135305;1281;22535;-80
2023/07/07 06:46:20;;;;;;;18.30;5.50;;;;;;;26.44;50.70;99463.29;135325;1281;22585;-76
2023/07/07 06:49:23;;;;;;;18.00;5.80;;;;;;;26.62;51.61;99469.59;135296;1281;22581;-78
2023/07/07 06:52:26;;;;;;;18.40;5.80;;;;;;;26.93;51.57;99473.23;135318;1273;22539;-78
2023/07/07 06:55:29;;;;;;;20.90;5.90;;;;;;;27.15;49.90;99475.91;135299;1281;22532;-77
2023/07/07 06:58:33;;;;;;;19.80;6.20;;;;;;;27.29;49.37;99474.46;135268;1281;22641;-79
2023/07/07 07:01:37;;;;;;;20.60;6.20;;;;;;;27.36;49.90;99474.46;135313;1281;22545;-77
2023/07/07 07:04:40;;;;;;;20.20;6.00;;;;;;;27.75;49.35;99475.80;135265;1281;22534;-77
2023/07/07 07:07:43;;;;;;;18.50;6.00;;;;;;;28.18;48.42;99475.58;135272;1281;22544;-77
2023/07/07 07:10:46;;;;;;;16.00;5.30;;;;;;;28.37;47.94;99471.99;135253;1281;22555;-71
2023/07/07 07:13:49;;;;;;;17.40;5.60;;;;;;;28.46;46.60;99467.83;135281;1266;25369;-69
2023/07/07 07:16:52;;;;;;;14.60;4.70;;;;;;;28.49;46.91;99470.61;135321;1281;26575;-76
2023/07/07 07:19:55;;;;;;;16.40;5.00;;;;;;;28.47;46.63;99475.44;135255;1281;22522;-79
2023/07/07 07:22:58;;;;;;;17.10;5.00;;;;;;;28.46;45.10;99480.73;135355;1281;22544;-77
2023/07/07 07:26:01;;;;;;;16.40;5.00;;;;;;;28.53;45.18;99478.73;135321;1262;22619;-77
2023/07/07 07:29:07;;;;;;;16.00;4.80;;;;;;;28.58;44.70;99479.91;135288;1281;22573;-78
2023/07/07 07:32:11;;;;;;;17.30;5.10;;;;;;;28.60;44.66;99480.61;135330;1281;22545;-77
2023/07/07 07:35:15;;;;;;;14.90;4.50;;;;;;;28.77;44.43;99477.91;135284;1281;22526;-79
2023/07/07 07:38:17;;;;;;;15.70;4.60;;;;;;;28.73;44.26;99479.16;135318;1281;22539;-76
2023/07/07 07:41:24;;;;;;;19.60;4.90;;;;;;;28.73;42.50;99483.44;135296;1281;22555;-78
2023/07/07 07:44:26;;;;;;;13.90;4.20;;;;;;;28.89;42.87;99484.27;135280;1281;22548;-79
2023/07/07 07:47:29;;;;;;;15.10;4.30;;;;;;;28.99;40.80;99486.25;135232;1281;22545;-76
2023/07/07 07:50:33;;;;;;;13.30;4.10;;;;;;;29.16;40.82;99488.36;135256;1281;22520;-77
2023/07/07 07:53:35;;;;;;;12.90;4.20;;;;;;;29.25;40.30;99488.54;135173;1265;24221;-76
2023/07/07 07:56:38;;;;;;;14.20;3.90;;;;;;;29.25;38.39;99493.06;135269;1281;22519;-74
2023/07/07 07:59:41;;;;;;;10.90;3.70;;;;;;;29.22;40.20;99489.27;135279;1277;22536;-77
2023/07/07 08:02:45;;;;;;;15.30;3.70;;;;;;;29.27;38.54;99497.25;135290;1281;22529;-75
2023/07/07 08:05:48;;;;;;;14.30;3.70;;;;;;;29.27;39.18;99491.34;135267;1281;22540;-76
2023/07/07 08:08:50;;;;;;;14.80;3.70;;;;;;;29.29;36.68;99497.01;135219;1263;22526;-75
2023/07/07 08:11:55;;;;;;;12.30;3.70;;;;;;;29.20;36.52;99494.34;135345;1281;22547;-74
2023/07/07 08:14:58;;;;;;;13.90;3.70;;;;;;;29.39;36.21;99491.55;135294;1281;22555;-78
2023/07/07 08:18:09;;;;;;;15.80;3.80;;;;;;;29.69;36.56;99488.63;135277;1281;22532;-76
2023/07/07 08:21:12;;;;;;;16.40;4.00;;;;;;;29.87;36.63;99485.88;135280;1281;22520;-76
2023/07/07 08:24:14;;;;;;;14.50;3.70;;;;;;;30.09;34.56;99493.23;135312;1278;22538;-77
2023/07/07 08:27:18;;;;;;;11.90;3.10;;;;;;;30.13;33.71;99490.79;135319;1281;22530;-79
2023/07/07 08:30:21;;;;;;;11.40;3.30;;;;;;;29.97;30.47;99493.48;135290;1262;22533;-77
2023/07/07 08:33:25;;;;;;;10.70;2.90;;;;;;;29.74;30.61;99494.98;135278;1281;22542;-76
2023/07/07 08:36:28;;;;;;;7.60;2.50;;;;;;;29.85;30.90;99486.77;135301;1281;25486;-78
2023/07/07 08:39:31;;;;;;;9.40;2.90;;;;;;;30.08;30.84;99489.48;135197;1281;22531;-79
2023/07/07 08:42:37;;;;;;;11.20;2.90;;;;;;;30.18;29.97;99499.58;135290;1281;22556;-76
2023/07/07 08:45:41;;;;;;;14.60;3.10;;;;;;;30.14;30.79;99499.05;135305;1281;22523;-80
2023/07/07 08:48:44;;;;;;;11.20;3.90;;;;;;;30.52;30.53;99493.48;135268;1262;23128;-76
2023/07/07 08:51:49;;;;;;;10.90;2.80;;;;;;;30.08;29.60;99504.98;135309;1281;22533;-76
2023/07/07 08:54:52;;;;;;;8.70;2.60;;;;;;;29.47;30.12;99499.15;135299;1281;22536;-79
2023/07/07 08:57:55;;;;;;;7.40;2.60;;;;;;;29.32;31.14;99503.66;135285;1281;22561;-80
2023/07/07 09:00:59;;;;;;;9.10;3.00;;;;;;;29.68;30.79;99506.39;135294;1281;22526;-79
2023/07/07 09:04:03;;;;;;;8.50;2.80;;;;;;;30.42;28.90;99502.20;135308;1281;22523;-81
2023/07/07 09:07:06;;;;;;;9.10;2.30;;;;;;;29.83;28.56;99507.95;135303;1262;22632;-78
2023/07/07 09:10:10;;;;;;;8.00;2.90;;;;;;;28.96;29.20;99515.97;135287;1281;22529;-78
2023/07/07 09:13:13;;;;;;;11.20;3.10;;;;;;;28.35;29.88;99520.44;135315;1281;22541;-78
2023/07/07 09:16:15;;;;;;;6.30;2.70;;;;;;;28.84;30.80;99517.02;135295;1262;22529;-79
2023/07/07 09:19:18;;;;;;;8.10;2.60;;;;;;;28.77;29.93;99524.45;135261;1265;22537;-82
2023/07/07 09:22:20;;;;;;;10.00;2.70;;;;;;;28.42;31.08;99525.08;135241;1281;22529;-81
2023/07/07 09:25:23;;;;;;;10.30;2.80;;;;;;;28.25;31.63;99527.85;135286;1281;22555;-80
2023/07/07 09:28:26;;;;;;;10.40;2.70;;;;;;;28.26;31.53;99529.23;135270;1281;23882;-80
2023/07/07 09:31:29;;;;;;;7.60;2.60;;;;;;;28.65;31.64;99527.08;135258;1262;22529;-80
2023/07/07 09:34:32;;;;;;;7.50;2.50;;;;;;;29.03;30.13;99528.42;135307;1262;24273;-78
2023/07/07 09:37:35;;;;;;;12.30;2.70;;;;;;;29.29;30.73;99524.63;135280;1281;22526;-81
2023/07/07 09:40:39;;;;;;;5.30;2.30;;;;;;;29.83;29.99;99522.43;135260;1281;22537;-80
2023/07/07 09:43:41;;;;;;;7.80;2.70;;;;;;;30.22;28.99;99520.94;135285;1281;24198;-79
2023/07/07 09:46:44;;;;;;;12.00;3.10;;;;;;;30.72;28.57;99525.14;135293;1265;24248;-79
2023/07/07 09:49:46;;;;;;;8.60;2.90;;;;;;;30.94;28.81;99522.55;135284;1281;22566;-75
2023/07/07 09:52:51;;;;;;;10.70;2.80;;;;;;;31.31;28.88;99520.77;135276;1281;22540;-74
2023/07/07 09:55:54;;;;;;;7.50;2.60;;;;;;;31.61;29.64;99516.39;135232;1281;22553;-76
2023/07/07 09:58:57;;;;;;;14.10;3.00;;;;;;;31.67;29.13;99520.59;135300;1262;24361;-79
2023/07/07 10:02:01;;;;;;;7.70;2.70;;;;;;;31.23;28.99;99520.41;135303;1280;25387;-78
2023/07/07 10:05:13;;;;;;;12.40;3.30;;;;;;;30.90;29.24;99526.13;135328;1281;22541;-76
2023/07/07 10:08:17;;;;;;;10.60;3.00;;;;;;;30.19;28.33;99534.53;135307;1281;22527;-74
2023/07/07 10:11:20;;;;;;;9.80;2.80;;;;;;;29.67;28.96;99531.70;135265;1281;22545;-77
2023/07/07 10:14:23;;;;;;;10.50;2.90;;;;;;;29.12;29.02;99534.11;135297;1258;22553;-78
2023/07/07 10:17:31;;;;;;;11.20;2.80;;;;;;;29.11;29.49;99525.96;135283;1281;22564;-79
2023/07/07 10:20:35;;;;;;;10.60;2.70;;;;;;;29.40;30.55;99524.89;135274;1281;22543;-79
2023/07/07 10:23:37;;;;;;;8.90;2.90;;;;;;;30.33;29.07;99527.79;135319;1278;22631;-81
2023/07/07 10:26:41;;;;;;;8.20;2.80;;;;;;;30.91;29.27;99521.48;135317;1281;22541;-76
2023/07/07 10:29:44;;;;;;;11.00;3.30;;;;;;;30.55;30.22;99515.55;135274;1281;22615;-77
2023/07/07 10:32:47;;;;;;;11.40;3.10;;;;;;;31.69;29.99;99509.84;135290;1281;22550;-77
2023/07/07 10:35:50;;;;;;;10.60;3.00;;;;;;;32.42;27.91;99504.98;135299;1267;22552;-77
2023/07/07 10:38:55;;;;;;;9.40;3.00;;;;;;;32.59;27.84;99506.14;135306;1281;22525;-76
2023/07/07 10:41:58;;;;;;;9.50;2.90;;;;;;;33.08;27.18;99503.27;135275;1281;22537;-75
2023/07/07 10:45:01;;;;;;;10.50;3.10;;;;;;;33.25;26.69;99505.96;135290;1281;25419;-76
2023/07/07 10:48:11;;;;;;;11.30;2.90;;;;;;;32.82;27.18;99501.47;135288;1281;22533;-81
2023/07/07 10:51:14;;;;;;;9.20;2.90;;;;;;;32.84;27.43;99506.33;135289;1281;22540;-77
2023/07/07 10:54:19;;;;;;;11.00;2.70;;;;;;;32.90;25.80;99512.45;135286;1281;22524;-80
2023/07/07 10:57:22;;;;;;;6.60;2.70;;;;;;;32.78;26.18;99501.94;135318;1281;22527;-79
2023/07/07 11:00:25;;;;;;;9.60;2.90;;;;;;;32.53;25.91;99510.98;135238;1281;22610;-77
2023/07/07 11:03:27;;;;;;;7.80;2.50;;;;;;;32.93;25.73;99501.77;135223;1262;22534;-77
2023/07/07 11:06:30;;;;;;;8.60;2.70;;;;;;;33.32;25.33;99499.34;135275;1281;22530;-79
2023/07/07 11:09:33;;;;;;;9.00;2.60;;;;;;;33.31;25.58;99503.75;135223;1281;22530;-76
2023/07/07 11:12:36;;;;;;;8.80;2.70;;;;;;;32.86;26.16;99506.34;135340;1281;22522;-74
2023/07/07 11:15:38;;;;;;;9.80;2.90;;;;;;;32.17;26.18;99519.56;135269;1281;22551;-75
2023/07/07 11:18:42;;;;;;;10.50;3.00;;;;;;;31.11;27.73;99518.99;135302;1281;22524;-72
2023/07/07 11:21:45;;;;;;;10.20;3.20;;;;;;;30.46;28.58;99512.84;135230;1281;22553;-74
2023/07/07 11:24:48;;;;;;;10.90;3.10;;;;;;;30.26;29.74;99516.03;135302;1281;22551;-77
2023/07/07 11:27:51;;;;;;;9.90;2.90;;;;;;;30.23;29.08;99515.90;135299;1281;25490;-78
2023/07/07 11:30:53;;;;;;;14.90;3.60;;;;;;;30.49;28.74;99516.20;135233;1281;22562;-73
2023/07/07 11:33:57;;;;;;;10.20;3.00;;;;;;;30.48;28.54;99513.73;135281;1281;22530;-80
2023/07/07 11:37:01;;;;;;;12.20;2.90;;;;;;;29.86;29.66;99510.55;135314;1281;22534;-79
2023/07/07 11:40:04;;;;;;;11.80;3.50;;;;;;;29.76;29.95;99509.71;135238;1281;22538;-80
2023/07/07 11:43:07;;;;;;;11.10;3.00;;;;;;;29.88;29.90;99509.77;135301;1281;22625;-81
2023/07/07 11:46:10;;;;;;;8.10;2.90;;;;;;;30.50;29.61;99508.79;135288;1265;22537;-80
2023/07/07 11:49:15;;;;;;;8.20;2.80;;;;;;;31.41;29.54;99510.34;135322;1281;25464;-79
2023/07/07 11:52:18;;;;;;;8.10;3.30;;;;;;;32.23;28.45;99505.92;135321;1281;22578;-78
2023/07/07 11:55:22;;;;;;;8.50;2.90;;;;;;;32.27;28.34;99501.02;135315;1281;22530;-77
2023/07/07 11:58:24;;;;;;;10.80;2.90;;;;;;;32.49;28.29;99501.11;135260;1281;22548;-78
2023/07/07 12:01:29;;;;;;;16.10;2.90;;;;;;;32.10;27.66;99504.20;135312;1281;25357;-78
2023/07/07 12:04:32;;;;;;;9.30;3.00;;;;;;;31.68;28.06;99507.83;135219;1281;22545;-78
2023/07/07 12:07:34;;;;;;;10.10;3.10;;;;;;;31.41;27.94;99509.19;135299;1281;22556;-78
2023/07/07 12:10:38;;;;;;;12.60;3.10;;;;;;;31.06;28.62;99509.00;135221;1265;22546;-78
2023/07/07 12:13:42;;;;;;;13.70;3.10;;;;;;;31.47;28.05;99503.20;135336;1281;22540;-80
2023/07/07 12:16:45;;;;;;;8.20;2.90;;;;;;;31.76;28.11;99507.48;135285;1281;22555;-78
2023/07/07 12:19:52;;;;;;;6.80;2.90;;;;;;;31.33;28.09;99503.98;135296;1281;22533;-76
2023/07/07 12:23:00;;;;;;;8.20;2.90;;;;;;;31.21;28.37;99500.40;135277;1281;22552;-78
2023/07/07 12:26:04;;;;;;;11.50;2.80;;;;;;;31.80;28.08;99498.96;135322;1281;22530;-78
2023/07/07 12:29:07;;;;;;;10.70;3.10;;;;;;;32.54;27.41;99490.64;135262;1281;22524;-74
2023/07/07 12:32:10;;;;;;;11.60;3.30;;;;;;;33.04;26.95;99484.08;135286;1281;22549;-76
2023/07/07 12:35:12;;;;;;;10.10;3.00;;;;;;;33.32;26.52;99480.25;135305;1281;22541;-77
2023/07/07 12:38:15;;;;;;;9.40;3.00;;;;;;;33.00;25.95;99481.50;135234;1281;22546;-77
2023/07/07 12:41:21;;;;;;;7.50;2.70;;;;;;;33.31;27.13;99479.16;135322;1281;22590;-79
2023/07/07 12:44:24;;;;;;;11.20;3.20;;;;;;;33.71;26.91;99477.59;135315;1281;22559;-77
2023/07/07 12:47:27;;;;;;;15.50;3.30;;;;;;;33.30;25.79;99483.65;135253;1281;22574;-79
2023/07/07 12:50:30;;;;;;;11.90;3.10;;;;;;;31.90;27.46;99485.84;135355;1281;22547;-81
2023/07/07 12:53:33;;;;;;;9.90;3.10;;;;;;;31.15;28.24;99489.66;135291;1257;24215;-78
2023/07/07 12:56:36;;;;;;;11.90;3.00;;;;;;;30.87;28.67;99487.11;135291;1281;22534;-79
2023/07/07 12:59:43;;;;;;;8.70;2.80;;;;;;;30.45;29.67;99482.23;135279;1281;22530;-78
2023/07/07 13:02:46;;;;;;;11.70;3.00;;;;;;;30.21;29.90;99478.70;135329;1281;22518;-78
2023/07/07 13:05:48;;;;;;;8.40;3.00;;;;;;;30.24;29.83;99478.33;135320;1281;22523;-80
2023/07/07 13:08:50;;;;;;;8.20;2.90;;;;;;;30.46;29.79;99472.16;135314;1271;22519;-78
2023/07/07 13:12:01;;;;;;;11.40;2.80;;;;;;;30.52;30.86;99477.27;135282;1281;25206;-79
2023/07/07 13:15:04;;;;;;;8.90;2.90;;;;;;;31.57;29.41;99474.20;135314;1281;22639;-76
2023/07/07 13:18:07;;;;;;;11.20;3.00;;;;;;;31.91;27.37;99478.38;135292;1281;22520;-76
2023/07/07 13:21:09;;;;;;;8.70;3.10;;;;;;;32.10;26.60;99480.63;135227;1281;22643;-77
2023/07/07 13:24:13;;;;;;;9.50;3.00;;;;;;;31.91;26.29;99480.85;135272;1266;22720;-76
2023/07/07 13:27:16;;;;;;;10.60;3.00;;;;;;;32.28;26.22;99482.94;135276;1281;22523;-77
2023/07/07 13:30:20;;;;;;;8.00;3.20;;;;;;;33.03;26.02;99473.88;135319;1271;22540;-75
2023/07/07 13:33:23;;;;;;;6.30;2.60;;;;;;;32.96;26.38;99475.91;135329;1281;22646;-78
2023/07/07 13:36:26;;;;;;;14.10;3.20;;;;;;;32.77;27.04;99477.12;135247;1281;22601;-78
2023/07/07 13:39:37;;;;;;;13.30;2.90;;;;;;;33.17;26.01;99474.05;135258;1281;22523;-78
2023/07/07 13:42:40;;;;;;;8.40;2.80;;;;;;;32.93;26.44;99478.35;135304;1281;22548;-81
2023/07/07 13:45:44;;;;;;;7.00;2.80;;;;;;;32.93;25.44;99477.16;135324;1281;22529;-78
2023/07/07 13:48:55;;;;;;;9.60;2.90;;;;;;;33.16;26.09;99477.34;135205;1281;22553;-74
2023/07/07 13:51:57;;;;;;;10.20;3.20;;;;;;;33.47;25.57;99475.80;135250;1271;24212;-75
2023/07/07 13:55:00;;;;;;;13.60;3.10;;;;;;;33.58;24.86;99472.81;135237;1281;25434;-76
2023/07/07 13:58:03;;;;;;;9.30;2.60;;;;;;;33.33;25.42;99474.70;135263;1267;24289;-79
2023/07/07 14:01:07;;;;;;;7.40;2.90;;;;;;;33.35;24.92;99476.48;135305;1281;22547;-77
2023/07/07 14:04:11;;;;;;;10.50;2.70;;;;;;;33.24;25.03;99470.98;135339;1281;22525;-77
2023/07/07 14:07:14;;;;;;;5.40;2.50;;;;;;;32.90;25.36;99478.85;135326;1281;24400;-76
2023/07/07 14:10:17;;;;;;;6.70;2.80;;;;;;;33.34;24.43;99478.23;135235;1281;22604;-77